Flight Track Log - Related Links

Times and Time Zones

All times are in EDT time to prevent confusion due to time zone crossing. See the JZA8411 flight status page for this flight to view local times or setup timezone preferences in your user account.

Time Position Orientation Groundspeed Altitude Reporting Facility
EDT Latitude Longitude Course Direction KTS MPH feet Rate Location/Type
Fri 08:48:34 AM 49.9333 -119.3667 262° West 90 104 1,900  Level Vancouver Center
Fri 08:49:34 AM 49.9000 -119.3333 147° Southeast 120 138 3,800 1,850 Climbing Vancouver Center
Fri 08:50:34 AM 49.8667 -119.3500 198° South 140 161 5,600 1,950 Climbing Vancouver Center
Fri 08:51:34 AM 49.8500 -119.4167 249° West 130 150 7,700 1,950 Climbing Vancouver Center
Fri 08:52:00 AM 50.0338 -119.5780 262° West  Level FlightAware Approximate
Fri 08:52:34 AM 49.8500 -119.4667 270° West 140 161 9,500  Level Vancouver Center
Fri 08:53:34 AM 49.8500 -119.5333 270° West 160 184 11,000 1,650 Climbing Vancouver Center
Fri 08:54:34 AM 49.8333 -119.6000 249° West 170 196 12,800 1,800 Climbing Vancouver Center
Fri 08:55:34 AM 49.8333 -119.6833 270° West 180 207 14,600 1,700 Climbing Vancouver Center
Fri 08:56:34 AM 49.8167 -119.7667 253° West 180 207 16,200 1,350 Climbing Vancouver Center
Fri 08:57:34 AM 49.8000 -119.8333 249° West 180 207 17,300 1,250 Climbing Vancouver Center
Fri 08:58:34 AM 49.7833 -119.9167 253° West 190 219 18,700 1,250 Climbing Vancouver Center
Fri 08:59:34 AM 49.7833 -120.0167 270° West 200 230 19,800 1,050 Climbing Vancouver Center
Fri 09:00:34 AM 49.7833 -120.1000 270° West 200 230 20,800 1,000 Climbing Vancouver Center
Fri 09:01:34 AM 49.7667 -120.1833 253° West 210 242 21,800 900 Climbing Vancouver Center
Fri 09:02:34 AM 49.7500 -120.2833 256° West 210 242 22,600 800 Climbing Vancouver Center
Fri 09:03:34 AM 49.7333 -120.3667 253° West 220 253 23,400 700 Climbing Vancouver Center
Fri 09:04:34 AM 49.7167 -120.4667 256° West 220 253 24,000 300 Climbing Vancouver Center
Fri 09:05:34 AM 49.7167 -120.5667 270° West 240 276 24,000  Level Vancouver Center
Fri 09:06:34 AM 49.7000 -120.6833 258° West 260 299 24,000  Level Vancouver Center
Fri 09:07:34 AM 49.6833 -120.7833 256° West 270 311 24,000  Level Vancouver Center
Fri 09:08:34 AM 49.6667 -120.9167 259° West 280 322 24,000  Level Vancouver Center
Fri 09:09:34 AM 49.6333 -121.0333 246° West 290 334 24,000 -200 Level Vancouver Center
Fri 09:10:34 AM 49.6000 -121.1500 246° West 290 334 23,600 -850 Descending Vancouver Center
Fri 09:11:34 AM 49.6000 -121.2667 270° West 310 357 22,300 -1,250 Descending Vancouver Center
Fri 09:12:34 AM 49.5667 -121.4000 249° West 300 345 21,100 -1,150 Descending Vancouver Center
Fri 09:13:34 AM 49.5500 -121.5167 258° West 290 334 20,000 -1,100 Descending Vancouver Center
Fri 09:14:34 AM 49.5167 -121.6333 246° West 280 322 18,900 -1,100 Descending Vancouver Center
Fri 09:15:34 AM 49.5000 -121.7500 258° West 280 322 17,800 -1,100 Descending Vancouver Center
Fri 09:16:34 AM 49.4667 -121.8667 246° West 270 311 16,700 -1,050 Descending Vancouver Center
Fri 09:17:34 AM 49.4500 -121.9833 258° West 260 299 15,700 -850 Descending Vancouver Center
Fri 09:18:34 AM 49.4500 -122.0833 270° West 260 299 15,000 -850 Descending Vancouver Center
Fri 09:19:34 AM 49.4167 -122.1833 243° Southwest 260 299 14,000 -1,050 Descending Vancouver Center
Fri 09:20:34 AM 49.4000 -122.2833 256° West 250 288 12,900 -1,200 Descending Vancouver Center
Fri 09:21:34 AM 49.3667 -122.3833 243° Southwest 250 288 11,600 -1,250 Descending Vancouver Center
Fri 09:22:34 AM 49.3167 -122.4500 221° Southwest 250 288 10,400 -1,250 Descending Vancouver Center
Fri 09:23:34 AM 49.2833 -122.5167 233° Southwest 240 276 9,100 -1,200 Descending Vancouver Center
Fri 09:24:34 AM 49.2333 -122.6000 227° Southwest 220 253 8,000 -1,100 Descending Vancouver Center
Fri 09:25:34 AM 49.2000 -122.6500 224° Southwest 210 242 6,900 -1,000 Descending Vancouver Center
Fri 09:26:34 AM 49.1667 -122.7333 239° Southwest 170 196 6,000 -900 Descending Vancouver Center
Fri 09:27:34 AM 49.1333 -122.7833 224° Southwest 180 207 5,100 -900 Descending Vancouver Center
Fri 09:28:34 AM 49.1333 -122.8500 270° West 180 207 4,200 -950 Descending Vancouver Center
Fri 09:29:34 AM 49.1333 -122.9333 270° West 170 196 3,200 -1,000 Descending Vancouver Center
Fri 09:30:34 AM 49.1500 -122.9833 297° West 180 207 2,200 -900 Descending Vancouver Center
Fri 09:31:34 AM 49.1500 -123.0667 270° West 150 173 1,400 -800 Descending Vancouver Center
Fri 09:32:34 AM 49.1667 -123.1167 297° West 140 161 600 -800 Descending Vancouver Center

Login

Don't have an account? Register now (free) for customized features, flight alerts, and more!